Time;durP1;ratioP1;P1;durP2;ratioP2;P2;SDS_P1;SDS_P2;PMS_P1;PMS_P2;Temp;Humidity;BMP_temperature;BMP_pressure;BME280_temperature;BME280_humidity;BME280_pressure;Samples;Min_cycle;Max_cycle;Signal;HPM_P1;HPM_P2
2021/05/14 00:00:12;;;;;;;10.25;6.72;;;;;;;10.91;100.00;99641.63;4949367;28;20038;-83
2021/05/14 00:02:39;;;;;;;9.57;6.07;;;;;;;10.84;100.00;99645.41;4974233;28;20048;-84
2021/05/14 00:05:07;;;;;;;9.52;6.03;;;;;;;10.85;100.00;99643.66;4941939;28;20051;-83
2021/05/14 00:07:34;;;;;;;10.98;6.50;;;;;;;10.82;100.00;99643.75;4953640;28;20035;-84
2021/05/14 00:10:01;;;;;;;9.82;6.15;;;;;;;10.81;100.00;99644.69;4931780;28;20054;-84
2021/05/14 00:12:27;;;;;;;10.70;6.38;;;;;;;10.81;100.00;99650.84;4928454;28;20559;-83
2021/05/14 00:14:54;;;;;;;10.05;5.72;;;;;;;10.81;100.00;99650.84;4944821;28;20050;-83
2021/05/14 00:17:21;;;;;;;9.82;5.93;;;;;;;10.97;100.00;99648.47;4929525;28;20047;-83
2021/05/14 00:19:47;;;;;;;9.68;6.10;;;;;;;10.97;100.00;99649.34;4931389;28;20053;-83
2021/05/14 00:22:14;;;;;;;12.70;6.20;;;;;;;10.93;100.00;99639.81;4946120;28;20042;-83
2021/05/14 00:24:41;;;;;;;7.10;5.13;;;;;;;10.96;100.00;99636.19;4958687;28;20050;-83
2021/05/14 00:27:07;;;;;;;10.45;5.82;;;;;;;10.86;100.00;99635.69;4929971;28;20054;-83
2021/05/14 00:29:34;;;;;;;11.45;7.25;;;;;;;10.83;100.00;99634.91;4955471;28;20077;-83
2021/05/14 00:32:01;;;;;;;10.77;7.10;;;;;;;10.77;100.00;99635.16;4934699;28;20141;-84
2021/05/14 00:34:28;;;;;;;12.30;7.25;;;;;;;10.75;100.00;99629.91;4936261;28;20092;-83
2021/05/14 00:36:54;;;;;;;9.05;6.20;;;;;;;10.75;100.00;99632.56;4950318;28;20047;-83
2021/05/14 00:39:21;;;;;;;10.57;7.10;;;;;;;10.76;100.00;99633.41;4964121;28;20054;-83
2021/05/14 00:41:48;;;;;;;12.88;7.22;;;;;;;10.73;100.00;99621.19;4965504;28;20049;-83
2021/05/14 00:44:35;;;;;;;11.82;6.97;;;;;;;10.80;100.00;99630.63;4927335;28;20047;-83
2021/05/14 00:47:12;;;;;;;9.60;6.93;;;;;;;10.75;100.00;99627.28;4962662;28;20039;-84
2021/05/14 00:49:40;;;;;;;10.52;6.28;;;;;;;10.76;100.00;99626.34;4948324;28;20499;-83
2021/05/14 00:52:10;;;;;;;11.32;6.97;;;;;;;10.78;100.00;99626.31;4933002;28;20039;-84
2021/05/14 00:54:37;;;;;;;11.77;6.85;;;;;;;10.82;100.00;99635.84;4944933;28;20054;-83
2021/05/14 00:57:07;;;;;;;11.57;7.43;;;;;;;10.85;100.00;99625.16;4950925;28;20053;-84
2021/05/14 00:59:34;;;;;;;11.70;6.28;;;;;;;10.80;100.00;99629.75;4935381;28;20042;-83
2021/05/14 01:02:01;;;;;;;11.82;7.50;;;;;;;10.74;100.00;99624.69;4947045;28;20621;-83
2021/05/14 01:04:29;;;;;;;10.88;7.00;;;;;;;10.74;100.00;99620.28;4951287;28;20604;-84
2021/05/14 01:06:56;;;;;;;10.52;6.82;;;;;;;10.75;100.00;99621.13;4949527;28;20504;-84
2021/05/14 01:09:22;;;;;;;13.50;7.90;;;;;;;10.69;100.00;99617.81;4955120;28;20054;-83
2021/05/14 01:11:49;;;;;;;13.32;7.50;;;;;;;10.62;100.00;99629.53;4957697;28;20703;-83
2021/05/14 01:14:16;;;;;;;11.82;7.35;;;;;;;10.58;100.00;99625.25;4960906;28;20035;-83
2021/05/14 01:16:43;;;;;;;13.57;7.57;;;;;;;10.71;100.00;99620.41;4955044;28;20077;-83
2021/05/14 01:19:10;;;;;;;13.35;7.75;;;;;;;10.70;100.00;99623.97;4972904;28;20042;-84
2021/05/14 01:21:37;;;;;;;13.65;7.63;;;;;;;10.69;100.00;99619.59;4933805;28;20043;-84
2021/05/14 01:24:04;;;;;;;14.38;8.15;;;;;;;10.70;100.00;99616.91;4942381;28;20046;-83
2021/05/14 01:26:31;;;;;;;14.15;8.10;;;;;;;10.73;100.00;99620.34;4940929;28;20782;-84
2021/05/14 01:28:59;;;;;;;15.20;8.88;;;;;;;10.75;100.00;99606.13;4947070;28;20047;-84
2021/05/14 01:31:26;;;;;;;13.05;7.97;;;;;;;10.70;100.00;99598.41;4958390;28;20038;-83
2021/05/14 01:33:52;;;;;;;16.38;8.38;;;;;;;10.78;100.00;99608.69;4958772;28;20042;-83
2021/05/14 01:36:19;;;;;;;12.90;8.20;;;;;;;10.79;100.00;99604.25;4929612;28;20043;-83
2021/05/14 01:38:46;;;;;;;12.85;7.97;;;;;;;10.82;100.00;99598.84;4940606;28;20046;-85
2021/05/14 01:41:13;;;;;;;13.43;8.38;;;;;;;10.78;100.00;99603.41;4934078;28;20074;-84
2021/05/14 01:43:40;;;;;;;12.00;7.32;;;;;;;10.74;100.00;99599.13;4972960;28;20047;-84
2021/05/14 01:46:07;;;;;;;12.55;8.00;;;;;;;10.77;100.00;99598.19;4957508;28;20042;-84
2021/05/14 01:48:34;;;;;;;13.02;8.65;;;;;;;10.69;100.00;99601.97;4936963;28;20039;-83
2021/05/14 01:51:27;;;;;;;15.95;8.65;;;;;;;10.66;100.00;99602.06;4963446;28;20516;-84
2021/05/14 01:53:54;;;;;;;11.95;6.97;;;;;;;10.59;100.00;99600.56;4946275;28;20045;-85
2021/05/14 01:56:21;;;;;;;12.93;7.05;;;;;;;10.55;100.00;99604.25;4937216;28;20053;-84
2021/05/14 01:58:49;;;;;;;13.25;8.80;;;;;;;10.51;100.00;99599.13;4937233;28;20559;-84
2021/05/14 02:01:16;;;;;;;11.25;7.60;;;;;;;10.58;100.00;99598.84;4950065;28;20046;-84
2021/05/14 02:03:43;;;;;;;14.63;8.38;;;;;;;10.74;100.00;99607.06;4945105;28;20047;-85
2021/05/14 02:06:10;;;;;;;15.27;8.65;;;;;;;10.70;100.00;99597.53;4937658;28;20586;-84
2021/05/14 02:08:37;;;;;;;14.75;8.15;;;;;;;10.68;100.00;99600.25;4936795;28;20408;-84
2021/05/14 02:11:09;;;;;;;16.88;8.77;;;;;;;10.77;100.00;99592.91;4971873;28;20042;-83
2021/05/14 02:13:37;;;;;;;15.20;9.15;;;;;;;10.68;100.00;99607.31;4957669;28;20420;-84
2021/05/14 02:16:05;;;;;;;13.70;8.98;;;;;;;10.75;100.00;99603.50;4947376;28;20050;-84
2021/05/14 02:18:32;;;;;;;14.52;8.95;;;;;;;10.66;100.00;99598.56;4987475;28;20084;-85
2021/05/14 02:21:00;;;;;;;11.60;7.38;;;;;;;10.62;100.00;99595.19;4935998;28;20046;-84
2021/05/14 02:23:27;;;;;;;15.85;9.82;;;;;;;10.63;100.00;99591.63;4962535;28;20068;-84
2021/05/14 02:25:54;;;;;;;14.40;9.02;;;;;;;10.73;100.00;99594.78;4949023;28;20043;-85
2021/05/14 02:28:21;;;;;;;15.98;9.50;;;;;;;10.68;100.00;99600.25;4967924;28;20042;-83
2021/05/14 02:30:48;;;;;;;15.98;8.65;;;;;;;10.75;100.00;99595.56;4949794;28;20105;-84
2021/05/14 02:33:15;;;;;;;14.02;9.15;;;;;;;10.58;100.00;99595.34;4957406;28;20046;-84
2021/05/14 02:35:41;;;;;;;15.77;8.73;;;;;;;10.61;100.00;99597.91;4973358;28;20061;-83
2021/05/14 02:38:08;;;;;;;11.90;7.97;;;;;;;10.57;100.00;99597.13;4939948;28;20039;-83
2021/05/14 02:40:35;;;;;;;14.70;8.65;;;;;;;10.70;100.00;99600.19;4940365;28;20053;-83
2021/05/14 02:43:04;;;;;;;13.23;9.15;;;;;;;10.61;100.00;99596.13;4972187;28;20042;-82
2021/05/14 02:45:31;;;;;;;12.98;8.20;;;;;;;10.59;100.00;99600.56;4943832;28;20049;-84
2021/05/14 02:47:58;;;;;;;12.65;8.10;;;;;;;10.61;100.00;99590.84;4952334;28;20074;-84
2021/05/14 02:50:25;;;;;;;13.50;7.93;;;;;;;10.65;100.00;99591.56;4942172;28;20034;-83
2021/05/14 02:52:55;;;;;;;14.82;8.35;;;;;;;10.69;100.00;99587.91;4973880;28;20046;-83
2021/05/14 02:55:21;;;;;;;12.75;8.90;;;;;;;10.67;100.00;99589.72;4958903;28;20042;-82
2021/05/14 02:57:48;;;;;;;12.82;7.72;;;;;;;10.64;100.00;99593.34;4943558;28;20125;-83
2021/05/14 03:00:15;;;;;;;13.90;7.93;;;;;;;10.68;100.00;99594.09;4940314;28;20520;-83
2021/05/14 03:02:42;;;;;;;11.45;7.32;;;;;;;10.70;100.00;99597.53;4957009;28;20046;-83
2021/05/14 03:05:10;;;;;;;13.48;7.57;;;;;;;10.51;100.00;99594.75;4939414;28;20042;-84
2021/05/14 03:07:37;;;;;;;12.63;7.30;;;;;;;10.53;100.00;99594.69;4949419;28;20081;-86
2021/05/14 03:10:04;;;;;;;13.63;7.97;;;;;;;10.55;100.00;99592.84;4937068;28;20054;-82
2021/05/14 03:12:34;;;;;;;14.45;8.45;;;;;;;10.57;100.00;99591.84;4941817;28;20042;-83
2021/05/14 03:15:01;;;;;;;14.18;7.78;;;;;;;10.59;100.00;99589.16;4937983;28;20436;-85
2021/05/14 03:17:28;;;;;;;13.10;7.30;;;;;;;10.53;100.00;99587.63;4957210;28;20130;-83
2021/05/14 03:19:55;;;;;;;12.45;8.15;;;;;;;10.51;100.00;99585.94;4956372;28;20105;-89
2021/05/14 03:22:22;;;;;;;14.05;7.65;;;;;;;10.51;100.00;99580.66;4987464;28;20042;-82
2021/05/14 03:24:48;;;;;;;12.73;7.47;;;;;;;10.59;100.00;99582.06;4927078;28;20038;-82
2021/05/14 03:27:15;;;;;;;18.10;6.82;;;;;;;10.55;100.00;99587.56;4966749;28;20038;-84
2021/05/14 03:29:43;;;;;;;10.43;6.63;;;;;;;10.54;100.00;99580.56;4951899;28;20049;-84
2021/05/14 03:32:11;;;;;;;11.25;7.15;;;;;;;10.58;100.00;99583.00;4951917;28;20038;-84
2021/05/14 03:34:38;;;;;;;9.85;6.57;;;;;;;10.53;100.00;99592.91;4941647;28;20038;-84
2021/05/14 03:37:05;;;;;;;11.63;6.45;;;;;;;10.57;100.00;99588.34;4952354;28;20042;-83
2021/05/14 03:39:38;;;;;;;8.93;6.70;;;;;;;10.56;100.00;99582.19;4958596;28;20053;-86
2021/05/14 03:42:13;;;;;;;11.50;6.75;;;;;;;10.57;100.00;99591.00;4955061;28;20046;-82
2021/05/14 03:44:41;;;;;;;8.30;5.60;;;;;;;10.64;100.00;99592.47;4955062;28;20055;-82
2021/05/14 03:47:08;;;;;;;9.60;6.15;;;;;;;10.64;100.00;99590.69;4958993;28;20050;-82
2021/05/14 03:49:39;;;;;;;11.32;6.40;;;;;;;10.64;100.00;99593.34;4957637;28;20034;-82
2021/05/14 03:52:11;;;;;;;9.13;5.63;;;;;;;10.66;100.00;99588.84;4932715;28;20065;-85
2021/05/14 03:54:39;;;;;;;12.00;6.00;;;;;;;10.63;100.00;99598.69;4939884;28;20157;-83
2021/05/14 03:57:07;;;;;;;6.82;5.22;;;;;;;10.60;100.00;99597.03;4950444;28;20117;-87
2021/05/14 03:59:34;;;;;;;10.27;5.85;;;;;;;10.51;100.00;99594.75;4959465;28;20039;-83
2021/05/14 04:02:01;;;;;;;8.57;5.53;;;;;;;10.54;100.00;99596.41;4929524;28;20542;-84
2021/05/14 04:04:30;;;;;;;7.75;5.78;;;;;;;10.53;100.00;99592.91;4953463;28;20495;-86
2021/05/14 04:07:02;;;;;;;9.50;5.95;;;;;;;10.57;100.00;99591.00;4947061;28;20058;-87
2021/05/14 04:09:32;;;;;;;10.27;6.15;;;;;;;10.62;100.00;99611.03;4955731;28;20037;-84
2021/05/14 04:14:33;;;;;;;10.13;6.35;;;;;;;10.62;100.00;99608.41;4950553;28;20046;-84
2021/05/14 04:17:15;;;;;;;8.73;6.80;;;;;;;10.52;100.00;99611.44;4960166;28;20054;-84
2021/05/14 04:19:42;;;;;;;11.15;6.88;;;;;;;10.47;100.00;99608.09;4952124;28;20049;-84
2021/05/14 04:22:09;;;;;;;8.52;5.60;;;;;;;10.49;100.00;99612.41;4972332;28;20046;-83
2021/05/14 04:24:36;;;;;;;8.32;6.13;;;;;;;10.48;100.00;99613.31;4951077;28;20050;-85
2021/05/14 04:27:02;;;;;;;9.98;7.05;;;;;;;10.50;100.00;99611.47;4943069;28;20523;-84
2021/05/14 04:29:29;;;;;;;11.05;6.00;;;;;;;10.50;100.00;99605.34;4939094;28;20044;-87
2021/05/14 04:31:58;;;;;;;7.45;5.00;;;;;;;10.46;100.00;99609.03;4941554;28;20042;-83
2021/05/14 04:34:27;;;;;;;9.98;6.65;;;;;;;10.51;100.00;99607.94;4934782;28;20039;-84
2021/05/14 04:37:01;;;;;;;9.30;6.47;;;;;;;10.50;100.00;99615.91;4951929;28;20109;-83
2021/05/14 04:39:27;;;;;;;9.75;5.97;;;;;;;10.57;100.00;99612.97;4959901;28;20497;-86
2021/05/14 04:41:54;;;;;;;10.45;6.57;;;;;;;10.68;100.00;99617.88;4942861;28;20127;-82
2021/05/14 04:44:22;;;;;;;9.43;5.70;;;;;;;10.60;100.00;99614.66;4973989;28;20631;-85
2021/05/14 04:46:51;;;;;;;10.68;6.82;;;;;;;10.56;100.00;99611.25;4956716;28;20077;-84
2021/05/14 04:49:18;;;;;;;9.13;6.50;;;;;;;10.62;100.00;99613.69;4984239;28;20117;-84
2021/05/14 04:51:45;;;;;;;9.45;6.43;;;;;;;10.53;100.00;99614.03;4946790;28;20133;-83
2021/05/14 04:54:12;;;;;;;9.88;7.05;;;;;;;10.64;100.00;99611.84;4953692;28;20050;-83
2021/05/14 04:56:39;;;;;;;12.23;8.13;;;;;;;10.68;100.00;99610.81;4967853;28;20039;-83
2021/05/14 04:59:05;;;;;;;12.05;6.60;;;;;;;10.57;100.00;99612.97;4958447;28;20042;-83
2021/05/14 05:01:33;;;;;;;9.18;6.13;;;;;;;10.52;100.00;99607.03;4942768;28;20139;-85
2021/05/14 05:04:00;;;;;;;9.35;5.80;;;;;;;10.50;100.00;99607.97;4963789;28;20039;-83
2021/05/14 05:06:27;;;;;;;12.25;7.15;;;;;;;10.55;100.00;99617.47;4953260;28;20511;-85
2021/05/14 05:08:53;;;;;;;12.88;7.05;;;;;;;10.53;100.00;99614.03;4976616;28;20045;-86
2021/05/14 05:11:20;;;;;;;12.65;7.13;;;;;;;10.60;100.00;99610.25;4964384;28;20050;-82
2021/05/14 05:13:47;;;;;;;9.48;6.80;;;;;;;10.61;100.00;99621.66;4963179;28;20046;-84
2021/05/14 05:16:13;;;;;;;10.10;6.25;;;;;;;10.55;100.00;99616.59;4952010;28;20054;-84
2021/05/14 05:18:40;;;;;;;12.45;6.80;;;;;;;10.55;100.00;99608.69;4951900;28;20651;-83
2021/05/14 05:21:07;;;;;;;8.82;6.30;;;;;;;10.57;100.00;99617.41;4959438;28;20511;-85
2021/05/14 05:23:34;;;;;;;150.27;118.65;;;;;;;10.60;100.00;99614.66;4959103;28;20043;-84
2021/05/14 05:26:01;;;;;;;18.23;13.23;;;;;;;10.67;100.00;99614.34;4950777;28;20043;-86
2021/05/14 05:28:29;;;;;;;14.65;9.98;;;;;;;10.70;100.00;99611.63;4956494;28;20048;-83
2021/05/14 05:30:56;;;;;;;11.82;8.70;;;;;;;10.67;100.00;99619.63;4954328;28;20039;-82
2021/05/14 05:33:24;;;;;;;10.15;5.80;;;;;;;10.53;100.00;99616.66;4978173;28;20056;-84
2021/05/14 05:35:52;;;;;;;8.68;6.30;;;;;;;10.60;100.00;99618.16;4973708;28;20038;-83
2021/05/14 05:38:21;;;;;;;9.00;6.28;;;;;;;10.60;100.00;99627.88;4952206;28;20057;-85
2021/05/14 05:40:50;;;;;;;9.43;6.38;;;;;;;10.70;100.00;99622.19;4946281;28;20127;-84
2021/05/14 05:43:17;;;;;;;8.35;5.45;;;;;;;10.67;100.00;99629.34;4945371;28;20046;-84
2021/05/14 05:45:44;;;;;;;8.80;7.10;;;;;;;10.66;100.00;99631.13;4945479;28;20045;-86
2021/05/14 05:48:11;;;;;;;11.77;6.90;;;;;;;10.64;100.00;99630.31;4960058;28;20049;-84
2021/05/14 05:50:39;;;;;;;12.80;11.55;;;;;;;10.63;100.00;99630.38;4946543;28;20070;-85
2021/05/14 05:53:07;;;;;;;10.10;7.25;;;;;;;10.74;100.00;99635.25;4971630;28;20504;-85
2021/05/14 05:55:34;;;;;;;8.98;6.57;;;;;;;10.75;100.00;99637.84;4959300;28;20048;-84
2021/05/14 05:58:09;;;;;;;10.00;5.70;;;;;;;10.66;100.00;99633.75;4943229;28;20043;-85
2021/05/14 06:00:37;;;;;;;11.20;6.40;;;;;;;10.66;100.00;99638.19;4971195;28;20043;-84
2021/05/14 06:03:05;;;;;;;11.45;7.13;;;;;;;10.67;100.00;99639.91;4973890;28;20077;-85
2021/05/14 06:05:32;;;;;;;10.38;7.28;;;;;;;10.70;100.00;99638.03;4938038;28;20046;-85
2021/05/14 06:08:01;;;;;;;10.10;6.30;;;;;;;10.70;100.00;99645.09;4936558;28;20699;-84
2021/05/14 06:10:28;;;;;;;9.02;6.80;;;;;;;10.72;100.00;99643.25;4935193;28;20128;-85
2021/05/14 06:12:54;;;;;;;10.30;6.72;;;;;;;10.78;100.00;99652.75;4934634;28;20515;-84
2021/05/14 06:15:22;;;;;;;11.77;7.38;;;;;;;10.72;100.00;99645.88;4959386;28;20053;-84
2021/05/14 06:17:49;;;;;;;9.93;7.90;;;;;;;10.74;100.00;99649.34;4938600;28;20047;-84
2021/05/14 06:20:20;;;;;;;11.07;7.88;;;;;;;10.66;100.00;99652.25;4940192;28;20097;-84
2021/05/14 06:22:47;;;;;;;11.43;7.30;;;;;;;10.64;100.00;99656.75;4968438;28;20038;-83
2021/05/14 06:25:15;;;;;;;10.10;7.30;;;;;;;10.59;100.00;99656.03;4955287;28;20752;-83
2021/05/14 06:27:41;;;;;;;9.40;6.63;;;;;;;10.66;100.00;99660.19;4940197;28;20463;-82
2021/05/14 06:30:09;;;;;;;8.48;5.38;;;;;;;10.61;100.00;99663.94;4970150;28;20050;-83
2021/05/14 06:32:36;;;;;;;12.45;6.82;;;;;;;10.64;100.00;99661.16;4955661;28;20050;-83
2021/05/14 06:35:04;;;;;;;9.85;7.03;;;;;;;10.65;100.00;99663.75;4950287;28;20050;-83
2021/05/14 06:37:31;;;;;;;10.35;6.38;;;;;;;10.71;100.00;99673.22;4959613;28;20126;-83
2021/05/14 06:39:58;;;;;;;8.73;6.05;;;;;;;10.60;100.00;99667.50;4957170;28;20035;-82
2021/05/14 06:42:24;;;;;;;9.80;6.90;;;;;;;10.63;100.00;99665.59;4952667;28;20049;-84
2021/05/14 06:44:53;;;;;;;10.73;6.60;;;;;;;10.56;100.00;99674.63;4939779;28;20385;-83
2021/05/14 06:47:20;;;;;;;8.32;5.90;;;;;;;10.57;100.00;99668.44;4981192;28;20046;-85
2021/05/14 06:49:47;;;;;;;11.70;7.07;;;;;;;10.62;100.00;99677.06;4972853;28;20085;-84
2021/05/14 06:52:14;;;;;;;8.70;6.03;;;;;;;10.65;100.00;99673.44;4937918;28;20404;-85
2021/05/14 06:54:40;;;;;;;8.77;6.13;;;;;;;10.63;100.00;99670.00;4973733;28;20050;-85
2021/05/14 06:57:07;;;;;;;9.25;5.43;;;;;;;10.74;100.00;99670.47;4952971;28;20035;-85
2021/05/14 06:59:34;;;;;;;8.05;5.38;;;;;;;10.66;100.00;99676.03;4937881;28;20500;-85
2021/05/14 07:02:01;;;;;;;7.70;5.95;;;;;;;10.63;100.00;99681.44;4951944;28;20042;-84
2021/05/14 07:04:28;;;;;;;8.38;6.78;;;;;;;10.57;100.00;99680.78;4931869;28;20527;-84
2021/05/14 07:06:55;;;;;;;7.38;5.43;;;;;;;10.55;100.00;99683.47;4973269;28;20054;-85
2021/05/14 07:09:22;;;;;;;7.20;5.10;;;;;;;10.57;100.00;99675.50;4969946;28;20130;-86
2021/05/14 07:11:48;;;;;;;6.35;5.00;;;;;;;10.56;100.00;99684.34;4955665;28;20058;-86
2021/05/14 07:14:16;;;;;;;7.72;5.22;;;;;;;10.58;100.00;99683.38;4954641;28;20043;-86
2021/05/14 07:16:44;;;;;;;13.50;12.10;;;;;;;10.58;100.00;99683.38;4953563;28;20046;-85
2021/05/14 07:19:13;;;;;;;15.30;13.93;;;;;;;10.60;100.00;99680.69;4944556;28;20078;-85
2021/05/14 07:21:41;;;;;;;7.32;5.43;;;;;;;10.66;100.00;99693.66;4957122;28;20050;-88
2021/05/14 07:24:09;;;;;;;6.00;4.50;;;;;;;10.66;100.00;99689.22;4950055;28;20687;-85
2021/05/14 07:26:35;;;;;;;6.25;5.15;;;;;;;10.66;100.00;99705.09;4959595;28;20407;-86
2021/05/14 07:29:06;;;;;;;5.45;3.97;;;;;;;10.64;100.00;99706.06;4954785;28;20046;-84
2021/05/14 07:31:32;;;;;;;10.18;9.18;;;;;;;10.57;100.00;99709.84;4938091;28;20038;-85
2021/05/14 07:33:59;;;;;;;8.98;8.18;;;;;;;10.57;100.00;99708.06;4947695;28;20069;-84
2021/05/14 07:36:26;;;;;;;13.68;11.57;;;;;;;10.56;100.00;99705.47;4933181;28;20604;-87
2021/05/14 07:38:54;;;;;;;15.07;11.60;;;;;;;10.56;100.00;99710.75;4937952;28;20169;-84
2021/05/14 07:41:21;;;;;;;40.50;33.75;;;;;;;10.56;100.00;99716.91;4975182;28;20050;-86
2021/05/14 07:43:47;;;;;;;6.47;5.10;;;;;;;10.51;100.00;99718.84;4936613;28;20042;-85
2021/05/14 07:46:14;;;;;;;32.40;24.77;;;;;;;10.49;100.00;99717.16;4936718;28;20046;-86
2021/05/14 07:48:42;;;;;;;6.88;4.70;;;;;;;10.42;100.00;99706.84;4969262;28;20051;-86
2021/05/14 07:51:09;;;;;;;7.47;5.90;;;;;;;10.47;100.00;99711.09;4937933;28;20081;-85
2021/05/14 07:53:36;;;;;;;12.20;9.00;;;;;;;10.39;100.00;99712.22;4938833;28;20069;-86
2021/05/14 07:56:03;;;;;;;17.95;13.27;;;;;;;10.50;100.00;99717.09;4957167;28;20063;-84
2021/05/14 07:58:30;;;;;;;18.00;13.65;;;;;;;10.42;100.00;99711.22;4957361;28;20038;-87
2021/05/14 08:00:57;;;;;;;12.05;8.10;;;;;;;10.38;100.00;99715.78;4939577;28;20034;-86
2021/05/14 08:03:24;;;;;;;12.02;10.00;;;;;;;10.37;100.00;99715.84;4962605;28;20043;-87
2021/05/14 08:05:51;;;;;;;63.65;51.38;;;;;;;10.41;100.00;99718.28;4935107;28;20035;-87
2021/05/14 08:08:19;;;;;;;9.95;7.70;;;;;;;10.35;100.00;99718.53;4968045;28;20046;-86
2021/05/14 08:10:47;;;;;;;8.93;7.38;;;;;;;10.33;100.00;99714.19;4937222;28;20043;-86
2021/05/14 08:13:19;;;;;;;11.63;6.93;;;;;;;10.33;100.00;99732.69;4947588;28;20085;-85
2021/05/14 08:15:46;;;;;;;5.30;4.53;;;;;;;10.45;100.00;99729.63;4944962;28;20121;-84
2021/05/14 08:18:13;;;;;;;6.50;5.57;;;;;;;10.50;100.00;99726.81;4930359;28;20412;-84
2021/05/14 08:20:41;;;;;;;6.07;3.90;;;;;;;10.41;100.00;99728.84;4944402;28;20201;-82
2021/05/14 08:23:10;;;;;;;6.25;4.22;;;;;;;10.42;100.00;99727.06;4961847;28;20496;-83
2021/05/14 08:25:37;;;;;;;12.82;7.18;;;;;;;10.46;100.00;99731.34;4961207;28;20046;-84
2021/05/14 08:28:04;;;;;;;5.68;3.90;;;;;;;10.38;100.00;99736.88;4946126;28;20042;-83
2021/05/14 08:30:31;;;;;;;13.38;10.30;;;;;;;10.28;100.00;99737.25;4935683;28;20039;-84
2021/05/14 08:32:58;;;;;;;10.52;7.95;;;;;;;10.16;100.00;99733.22;4960014;28;20043;-84
2021/05/14 08:35:25;;;;;;;6.68;4.07;;;;;;;10.38;100.00;99728.97;4938855;28;20034;-84
2021/05/14 08:37:52;;;;;;;8.07;4.07;;;;;;;10.37;100.00;99736.94;4936468;28;20050;-84
2021/05/14 08:40:19;;;;;;;12.48;9.23;;;;;;;10.35;100.00;99729.09;4952858;28;20039;-84
2021/05/14 08:42:45;;;;;;;6.35;3.83;;;;;;;10.31;100.00;99737.16;4951681;28;20046;-83
2021/05/14 08:45:13;;;;;;;7.18;4.50;;;;;;;10.39;100.00;99729.84;4940689;28;20069;-84
2021/05/14 08:47:41;;;;;;;8.25;4.97;;;;;;;10.39;100.00;99737.75;4948281;28;20389;-83
2021/05/14 08:50:11;;;;;;;9.52;7.60;;;;;;;10.38;100.00;99736.03;4955643;28;20038;-83
2021/05/14 08:52:39;;;;;;;8.55;7.53;;;;;;;10.50;100.00;99738.22;4955076;28;20085;-83
2021/05/14 08:55:08;;;;;;;5.88;4.35;;;;;;;10.42;100.00;99742.91;4965837;28;20078;-85
2021/05/14 08:57:39;;;;;;;7.32;4.78;;;;;;;10.42;100.00;99741.16;4947410;28;20054;-84
2021/05/14 09:00:08;;;;;;;6.47;4.63;;;;;;;10.49;100.00;99744.44;4952563;28;20137;-84
2021/05/14 09:02:36;;;;;;;6.25;4.47;;;;;;;10.47;100.00;99743.63;4931984;28;20046;-84
2021/05/14 09:05:29;;;;;;;4.45;4.00;;;;;;;10.50;100.00;99755.84;4935878;28;20042;-83
2021/05/14 09:07:57;;;;;;;5.03;4.53;;;;;;;10.42;100.00;99746.44;4945951;28;20046;-84
2021/05/14 09:10:25;;;;;;;6.43;4.80;;;;;;;10.31;100.00;99755.63;4950704;28;20073;-84
2021/05/14 09:12:52;;;;;;;5.50;4.93;;;;;;;10.33;100.00;99756.44;4938487;28;20047;-84
2021/05/14 09:15:29;;;;;;;9.23;8.32;;;;;;;10.39;100.00;99764.16;4954032;28;20518;-83
2021/05/14 09:18:22;;;;;;;5.95;5.32;;;;;;;10.41;100.00;99768.47;4963828;28;20428;-85
2021/05/14 09:20:57;;;;;;;7.03;4.72;;;;;;;10.41;100.00;99767.59;4952612;28;20039;-84
2021/05/14 09:23:36;;;;;;;5.03;3.97;;;;;;;10.47;100.00;99764.75;4968314;28;20500;-83
2021/05/14 09:26:06;;;;;;;9.73;8.68;;;;;;;10.48;100.00;99771.75;4955128;28;20034;-87
2021/05/14 09:28:50;;;;;;;4.85;3.97;;;;;;;10.40;100.00;99769.38;4972698;28;20068;-83
2021/05/14 09:31:22;;;;;;;6.35;5.75;;;;;;;10.40;100.00;99772.03;4942730;28;20121;-84
2021/05/14 09:33:58;;;;;;;10.13;8.60;;;;;;;10.54;100.00;99774.19;4972426;28;20073;-83
2021/05/14 09:36:30;;;;;;;7.38;4.05;;;;;;;10.49;100.00;99775.25;4956240;28;20055;-85
2021/05/14 09:38:58;;;;;;;8.00;5.35;;;;;;;10.45;100.00;99771.03;4956983;28;20097;-83
2021/05/14 09:41:34;;;;;;;6.15;4.88;;;;;;;10.40;100.00;99776.44;4971557;28;20050;-84
2021/05/14 09:44:07;;;;;;;6.95;5.45;;;;;;;10.40;100.00;99771.16;4952375;28;20042;-82
2021/05/14 09:46:38;;;;;;;7.07;5.90;;;;;;;10.43;100.00;99776.34;4986290;28;20053;-83
2021/05/14 09:49:09;;;;;;;9.98;8.45;;;;;;;10.40;100.00;99777.31;4959117;28;20047;-83
2021/05/14 09:51:50;;;;;;;10.90;7.35;;;;;;;10.33;100.00;99773.13;4953402;28;20617;-85
2021/05/14 09:54:24;;;;;;;11.65;10.02;;;;;;;10.35;100.00;99781.03;4959173;28;20054;-83
2021/05/14 09:57:05;;;;;;;8.18;5.35;;;;;;;10.34;100.00;99779.28;4971202;28;20125;-83
2021/05/14 09:59:32;;;;;;;7.90;6.20;;;;;;;10.30;100.00;99785.59;4965267;28;20052;-83
2021/05/14 10:01:59;;;;;;;9.05;7.13;;;;;;;10.35;100.00;99791.59;4954906;28;20035;-85
2021/05/14 10:04:28;;;;;;;8.73;6.47;;;;;;;10.34;100.00;99785.44;4936427;28;20077;-84
2021/05/14 10:06:57;;;;;;;9.43;6.85;;;;;;;10.34;100.00;99784.56;4972364;28;20081;-83
2021/05/14 10:09:25;;;;;;;10.52;7.13;;;;;;;10.15;100.00;99786.91;4958069;28;20621;-84
2021/05/14 10:11:52;;;;;;;9.40;7.20;;;;;;;10.10;100.00;99791.50;4937752;28;20124;-84
2021/05/14 10:14:20;;;;;;;9.80;6.75;;;;;;;10.24;100.00;99791.06;4970762;28;20051;-84
2021/05/14 10:16:46;;;;;;;9.50;6.32;;;;;;;10.18;100.00;99788.63;4937378;28;20050;-84
2021/05/14 10:19:13;;;;;;;9.25;6.93;;;;;;;10.21;100.00;99793.78;4974885;28;20038;-85
2021/05/14 10:21:43;;;;;;;9.43;6.68;;;;;;;10.26;100.00;99794.53;4938630;28;20415;-84
2021/05/14 10:24:10;;;;;;;12.40;9.05;;;;;;;10.29;100.00;99795.28;4954491;28;20043;-83
2021/05/14 10:26:37;;;;;;;7.00;5.78;;;;;;;10.23;100.00;99795.47;4952275;28;20049;-84
2021/05/14 10:29:12;;;;;;;9.25;5.35;;;;;;;10.30;100.00;99798.78;4938480;28;20061;-85
2021/05/14 10:31:43;;;;;;;8.65;5.75;;;;;;;10.34;100.00;99800.41;4942108;28;20121;-84
2021/05/14 10:34:17;;;;;;;8.15;5.30;;;;;;;10.38;100.00;99808.19;4954056;28;20081;-83
2021/05/14 10:36:45;;;;;;;7.88;6.20;;;;;;;10.37;100.00;99810.88;4933364;28;20568;-86
2021/05/14 10:39:17;;;;;;;9.27;8.23;;;;;;;10.39;100.00;99806.41;4974053;28;20050;-85
2021/05/14 10:41:50;;;;;;;7.28;6.07;;;;;;;10.39;100.00;99803.75;4953771;28;20043;-82
2021/05/14 10:44:18;;;;;;;5.53;4.55;;;;;;;10.37;100.00;99801.19;4956534;28;20503;-83
2021/05/14 10:46:45;;;;;;;6.32;4.88;;;;;;;10.33;100.00;99811.88;4932759;28;20134;-84
2021/05/14 10:49:13;;;;;;;5.15;3.90;;;;;;;10.27;100.00;99801.53;4970310;28;20097;-84
2021/05/14 10:51:46;;;;;;;6.15;4.65;;;;;;;10.23;100.00;99815.75;4933571;28;20035;-83
2021/05/14 10:54:37;;;;;;;5.07;4.00;;;;;;;10.16;100.00;99812.41;4954057;28;20089;-83
2021/05/14 10:57:05;;;;;;;9.25;7.35;;;;;;;10.16;100.00;99817.66;4969041;28;20047;-83
2021/05/14 10:59:38;;;;;;;6.88;6.18;;;;;;;10.14;100.00;99815.09;4967626;28;20054;-84
2021/05/14 11:02:30;;;;;;;20.95;19.02;;;;;;;10.28;100.00;99821.75;4951006;28;20080;-84
2021/05/14 11:04:58;;;;;;;6.60;5.82;;;;;;;10.28;100.00;99825.25;4954109;28;20056;-84
2021/05/14 11:07:41;;;;;;;8.60;7.57;;;;;;;10.43;100.00;99823.88;4955079;28;20046;-83
2021/05/14 11:10:14;;;;;;;10.05;9.05;;;;;;;10.38;100.00;99828.44;4933735;28;20050;-84
2021/05/14 11:12:42;;;;;;;6.45;4.65;;;;;;;10.21;100.00;99836.03;4951319;28;20046;-83
2021/05/14 11:15:20;;;;;;;6.72;5.88;;;;;;;10.34;100.00;99843.53;4943773;28;20046;-84
2021/05/14 11:18:21;;;;;;;6.13;5.20;;;;;;;10.26;100.00;99845.56;4966185;28;20053;-86
2021/05/14 11:20:48;;;;;;;6.63;4.57;;;;;;;10.23;100.00;99842.13;4955023;28;20085;-83
2021/05/14 11:23:34;;;;;;;6.63;5.13;;;;;;;10.28;100.00;99845.50;4964098;28;20519;-83
2021/05/14 11:26:06;;;;;;;7.22;6.35;;;;;;;10.28;100.00;99835.81;4969978;28;20122;-83
2021/05/14 11:28:47;;;;;;;7.28;5.68;;;;;;;10.26;100.00;99847.34;4970820;28;20074;-83